Time,TemperatureF,DewpointF,PressureIn,WindDirection,WindDirectionDegrees,WindSpeedMPH,WindSpeedGustMPH,Humidity,HourlyPrecipIn,Conditions,Clouds,dailyrainin,SoftwareType,DateUTC
2013-02-19 00:00:00,42.3,-99.9,29.86,SE,126,4.0,15.0,-999,0.00,,---,0.00,VWS V14.01,2013-02-19 08:00:00,
2013-02-19 00:01:00,42.4,-99.9,29.87,SE,128,13.0,13.0,-999,0.00,,---,0.00,VWS V14.01,2013-02-19 08:01:00,
2013-02-19 00:06:00,42.4,-99.9,29.87,ESE,116,3.0,13.0,-999,0.00,,---,0.00,VWS V14.01,2013-02-19 08:06:00,
2013-02-19 00:11:00,42.4,-99.9,29.87,SE,128,4.0,13.0,-999,0.00,,---,0.00,VWS V14.01,2013-02-19 08:11:00,
2013-02-19 00:16:00,42.4,-99.9,29.87,SE,132,4.0,13.0,-999,0.00,,---,0.00,VWS V14.01,2013-02-19 08:16:00,
2013-02-19 00:21:00,42.4,-99.9,29.87,South,179,4.0,13.0,-999,0.00,,---,0.00,VWS V14.01,2013-02-19 08:21:00,
2013-02-19 00:26:00,42.5,-99.9,29.87,SE,127,2.0,13.0,-999,0.00,,---,0.00,VWS V14.01,2013-02-19 08:26:00,
2013-02-19 00:30:00,41.8,-99.9,29.85,East,100,11.0,15.0,-999,0.00,,---,0.00,VWS V14.01,2013-02-19 08:30:00,
2013-02-19 00:31:00,42.4,-99.9,29.86,ENE,71,6.0,9.0,-999,0.00,,---,0.00,VWS V14.01,2013-02-19 08:31:00,
2013-02-19 00:37:00,42.4,-99.9,29.86,ENE,70,3.0,11.0,-999,0.00,,---,0.00,VWS V14.01,2013-02-19 08:37:00,
2013-02-19 00:42:00,42.4,-99.9,29.86,East,98,5.0,11.0,-999,0.00,,---,0.00,VWS V14.01,2013-02-19 08:42:00,
2013-02-19 00:47:00,42.3,-99.9,29.86,SE,134,7.0,11.0,-999,0.00,,---,0.00,VWS V14.01,2013-02-19 08:47:00,
2013-02-19 00:52:00,42.2,-99.9,29.85,East,80,4.0,11.0,-999,0.00,,---,0.00,VWS V14.01,2013-02-19 08:52:00,
2013-02-19 00:57:00,42.2,-99.9,29.86,East,101,8.0,12.0,-999,0.00,,---,0.00,VWS V14.01,2013-02-19 08:57:00,
2013-02-19 01:00:00,41.4,-99.9,29.85,ESE,103,5.0,15.0,-999,0.00,,---,0.00,VWS V14.01,2013-02-19 09:00:00,
2013-02-19 01:02:00,42.3,-99.9,29.86,SE,137,5.0,15.0,-999,0.00,,---,0.00,VWS V14.01,2013-02-19 09:02:00,
2013-02-19 01:07:00,42.2,-99.9,29.86,East,92,6.0,10.0,-999,0.00,,---,0.00,VWS V14.01,2013-02-19 09:07:00,
2013-02-19 01:12:00,42.1,-99.9,29.86,ESE,110,3.0,10.0,-999,0.00,,---,0.00,VWS V14.01,2013-02-19 09:12:00,
2013-02-19 01:17:00,42.0,-99.9,29.86,ESE,107,9.0,13.0,-999,0.00,,---,0.00,VWS V14.01,2013-02-19 09:17:00,
2013-02-19 01:22:00,42.0,-99.9,29.85,ESE,113,6.0,13.0,-999,0.00,,---,0.00,VWS V14.01,2013-02-19 09:22:00,
2013-02-19 01:27:00,42.0,-99.9,29.85,SE,143,4.0,13.0,-999,0.00,,---,0.00,VWS V14.01,2013-02-19 09:27:00,
2013-02-19 01:30:00,41.2,-99.9,29.84,East,101,5.0,14.0,-999,0.00,,---,0.00,VWS V14.01,2013-02-19 09:30:00,
2013-02-19 01:32:00,41.8,-99.9,29.85,ESE,106,12.0,15.0,-999,0.00,,---,0.00,VWS V14.01,2013-02-19 09:32:00,
2013-02-19 01:37:00,41.8,-99.9,29.85,East,93,0.0,15.0,-999,0.00,,---,0.00,VWS V14.01,2013-02-19 09:37:00,
2013-02-19 01:42:00,41.7,-99.9,29.85,ESE,106,3.0,15.0,-999,0.00,,---,0.00,VWS V14.01,2013-02-19 09:42:00,
2013-02-19 01:47:00,41.7,-99.9,29.85,SSE,163,6.0,15.0,-999,0.00,,---,0.00,VWS V14.01,2013-02-19 09:47:00,
2013-02-19 01:52:00,41.6,-99.9,29.85,East,81,7.0,15.0,-999,0.00,,---,0.00,VWS V14.01,2013-02-19 09:52:00,
2013-02-19 01:57:00,41.5,-99.9,29.85,SSE,159,5.0,15.0,-999,0.00,,---,0.00,VWS V14.01,2013-02-19 09:57:00,
2013-02-19 02:00:00,40.9,-99.9,29.83,East,87,2.0,13.0,-999,0.00,,---,0.00,VWS V14.01,2013-02-19 10:00:00,
2013-02-19 02:02:00,41.4,-99.9,29.85,ESE,111,5.0,6.0,-999,0.00,,---,0.00,VWS V14.01,2013-02-19 10:02:00,
2013-02-19 02:07:00,41.4,-99.9,29.85,East,90,6.0,11.0,-999,0.00,,---,0.00,VWS V14.01,2013-02-19 10:07:00,
2013-02-19 02:12:00,41.3,-99.9,29.85,ESE,102,4.0,11.0,-999,0.00,,---,0.00,VWS V14.01,2013-02-19 10:12:00,
2013-02-19 02:17:00,41.3,-99.9,29.84,ESE,118,4.0,11.0,-999,0.00,,---,0.00,VWS V14.01,2013-02-19 10:17:00,
2013-02-19 02:22:00,41.3,-99.9,29.84,ESE,105,2.0,11.0,-999,0.00,,---,0.00,VWS V14.01,2013-02-19 10:22:00,
2013-02-19 02:27:00,41.2,-99.9,29.84,ENE,70,9.0,14.0,-999,0.00,,---,0.00,VWS V14.01,2013-02-19 10:27:00,
2013-02-19 02:30:00,40.5,-99.9,29.82,ESE,106,8.0,15.0,-999,0.00,,---,0.00,VWS V14.01,2013-02-19 10:30:00,
2013-02-19 02:32:00,41.2,-99.9,29.84,SSE,150,3.0,5.0,-999,0.00,,---,0.00,VWS V14.01,2013-02-19 10:32:00,
2013-02-19 02:37:00,41.2,-99.9,29.84,SSE,150,3.0,10.0,-999,0.00,,---,0.00,VWS V14.01,2013-02-19 10:37:00,
2013-02-19 02:42:00,41.2,-99.9,29.84,SE,130,9.0,11.0,-999,0.00,,---,0.00,VWS V14.01,2013-02-19 10:42:00,
2013-02-19 02:47:00,41.2,-99.9,29.83,SE,141,5.0,11.0,-999,0.00,,---,0.00,VWS V14.01,2013-02-19 10:47:00,
2013-02-19 02:52:00,41.1,-99.9,29.83,East,100,4.0,13.0,-999,0.00,,---,0.00,VWS V14.01,2013-02-19 10:52:00,
2013-02-19 02:57:00,41.0,-99.9,29.83,SE,131,7.0,13.0,-999,0.00,,---,0.00,VWS V14.01,2013-02-19 10:57:00,
2013-02-19 03:00:00,40.3,-99.9,29.82,ESE,114,4.0,17.0,-999,0.00,,---,0.00,VWS V14.01,2013-02-19 11:00:00,
2013-02-19 03:02:00,40.9,-99.9,29.83,East,90,2.0,4.0,-999,0.00,,---,0.00,VWS V14.01,2013-02-19 11:02:00,
2013-02-19 03:07:00,40.9,-99.9,29.83,SE,129,1.0,4.0,-999,0.00,,---,0.00,VWS V14.01,2013-02-19 11:07:00,
2013-02-19 03:12:00,40.7,-99.9,29.82,SE,135,3.0,6.0,-999,0.00,,---,0.00,VWS V14.01,2013-02-19 11:12:00,
2013-02-19 03:17:00,40.8,-99.9,29.82,ESE,102,3.0,8.0,-999,0.00,,---,0.00,VWS V14.01,2013-02-19 11:17:00,
2013-02-19 03:22:00,40.8,-99.9,29.82,ESE,110,2.0,8.0,-999,0.00,,---,0.00,VWS V14.01,2013-02-19 11:22:00,
2013-02-19 03:27:00,40.6,-99.9,29.82,ENE,73,9.0,13.0,-999,0.00,,---,0.00,VWS V14.01,2013-02-19 11:27:00,
2013-02-19 03:30:00,40.2,-99.9,29.82,ENE,77,5.0,14.0,-999,0.00,,---,0.00,VWS V14.01,2013-02-19 11:30:00,
2013-02-19 03:32:00,40.5,-99.9,29.82,SE,145,7.0,13.0,-999,0.00,,---,0.00,VWS V14.01,2013-02-19 11:32:00,
2013-02-19 03:38:00,40.4,-99.9,29.82,ESE,110,9.0,17.0,-999,0.00,,---,0.00,VWS V14.01,2013-02-19 11:38:00,
2013-02-19 03:43:00,40.4,-99.9,29.82,ESE,111,4.0,17.0,-999,0.00,,---,0.00,VWS V14.01,2013-02-19 11:43:00,
2013-02-19 03:48:00,40.3,-99.9,29.82,East,98,3.0,17.0,-999,0.00,,---,0.00,VWS V14.01,2013-02-19 11:48:00,
2013-02-19 03:53:00,40.3,-99.9,29.82,East,86,5.0,17.0,-999,0.00,,---,0.00,VWS V14.01,2013-02-19 11:53:00,
2013-02-19 03:58:00,40.3,-99.9,29.82,SE,130,3.0,17.0,-999,0.00,,---,0.00,VWS V14.01,2013-02-19 11:58:00,
2013-02-19 04:00:00,40.1,-99.9,29.82,SE,139,7.0,13.0,-999,0.00,,---,0.00,VWS V14.01,2013-02-19 12:00:00,
2013-02-19 04:03:00,40.3,-99.9,29.82,East,99,0.0,5.0,-999,0.00,,---,0.00,VWS V14.01,2013-02-19 12:03:00,
2013-02-19 04:08:00,40.3,-99.9,29.82,SE,132,11.0,14.0,-999,0.00,,---,0.00,VWS V14.01,2013-02-19 12:08:00,
2013-02-19 04:13:00,40.2,-99.9,29.82,ESE,119,4.0,14.0,-999,0.00,,---,0.00,VWS V14.01,2013-02-19 12:13:00,
2013-02-19 04:18:00,40.3,-99.9,29.82,SE,137,5.0,14.0,-999,0.00,,---,0.00,VWS V14.01,2013-02-19 12:18:00,
2013-02-19 04:23:00,40.2,-99.9,29.82,East,96,2.0,14.0,-999,0.00,,---,0.00,VWS V14.01,2013-02-19 12:23:00,
2013-02-19 04:28:00,40.1,-99.9,29.82,ESE,107,2.0,14.0,-999,0.00,,---,0.00,VWS V14.01,2013-02-19 12:28:00,
2013-02-19 04:30:00,39.7,-99.9,29.82,East,87,4.0,14.0,-999,0.00,,---,0.00,VWS V14.01,2013-02-19 12:30:00,
2013-02-19 04:33:00,40.2,-99.9,29.82,South,187,2.0,6.0,-999,0.00,,---,0.00,VWS V14.01,2013-02-19 12:33:00,
2013-02-19 04:38:00,40.2,-99.9,29.82,ESE,102,6.0,10.0,-999,0.00,,---,0.00,VWS V14.01,2013-02-19 12:38:00,
2013-02-19 04:43:00,40.2,-99.9,29.82,ESE,123,2.0,10.0,-999,0.00,,---,0.00,VWS V14.01,2013-02-19 12:43:00,
2013-02-19 04:48:00,40.3,-99.9,29.82,SE,139,5.0,10.0,-999,0.00,,---,0.00,VWS V14.01,2013-02-19 12:48:00,
2013-02-19 04:53:00,40.2,-99.9,29.82,SE,135,8.0,11.0,-999,0.00,,---,0.00,VWS V14.01,2013-02-19 12:53:00,
2013-02-19 04:58:00,40.1,-99.9,29.82,SE,141,8.0,11.0,-999,0.00,,---,0.00,VWS V14.01,2013-02-19 12:58:00,
2013-02-19 05:00:00,39.5,-99.9,29.81,SSW,209,0.0,11.0,-999,0.00,,---,0.00,VWS V14.01,2013-02-19 13:00:00,
2013-02-19 05:03:00,40.0,-99.9,29.82,SE,146,10.0,10.0,-999,0.00,,---,0.00,VWS V14.01,2013-02-19 13:03:00,
2013-02-19 05:08:00,39.9,-99.9,29.82,SSE,156,5.0,10.0,-999,0.00,,---,0.00,VWS V14.01,2013-02-19 13:08:00,
2013-02-19 05:13:00,39.9,-99.9,29.82,SE,135,2.0,10.0,-999,0.00,,---,0.00,VWS V14.01,2013-02-19 13:13:00,
2013-02-19 05:18:00,39.9,-99.9,29.83,ESE,107,4.0,11.0,-999,0.00,,---,0.00,VWS V14.01,2013-02-19 13:18:00,
2013-02-19 05:23:00,39.7,-99.9,29.82,SSE,153,12.0,12.0,-999,0.00,,---,0.00,VWS V14.01,2013-02-19 13:23:00,
2013-02-19 05:28:00,39.7,-99.9,29.82,East,93,1.0,14.0,-999,0.00,,---,0.00,VWS V14.01,2013-02-19 13:28:00,
2013-02-19 05:30:00,39.3,-99.9,29.81,SE,140,3.0,10.0,-999,0.00,,---,0.00,VWS V14.01,2013-02-19 13:30:00,
2013-02-19 05:33:00,39.6,-99.9,29.82,ESE,106,3.0,6.0,-999,0.00,,---,0.00,VWS V14.01,2013-02-19 13:33:00,
2013-02-19 05:38:00,39.7,-99.9,29.82,East,85,6.0,11.0,-999,0.00,,---,0.00,VWS V14.01,2013-02-19 13:38:00,
2013-02-19 05:43:00,39.6,-99.9,29.82,East,101,5.0,11.0,-999,0.00,,---,0.00,VWS V14.01,2013-02-19 13:43:00,
2013-02-19 05:48:00,39.5,-99.9,29.81,ESE,112,0.0,11.0,-999,0.00,,---,0.00,VWS V14.01,2013-02-19 13:48:00,
2013-02-19 05:53:00,39.4,-99.9,29.81,NNE,30,4.0,11.0,-999,0.00,,---,0.00,VWS V14.01,2013-02-19 13:53:00,
2013-02-19 05:58:00,39.4,-99.9,29.81,ESE,121,5.0,11.0,-999,0.00,,---,0.00,VWS V14.01,2013-02-19 13:58:00,
2013-02-19 06:00:00,39.6,-99.9,29.80,ESE,103,6.0,13.0,-999,0.00,,---,0.00,VWS V14.01,2013-02-19 14:00:00,
2013-02-19 06:03:00,39.4,-99.9,29.81,ENE,62,3.0,4.0,-999,0.00,,---,0.00,VWS V14.01,2013-02-19 14:03:00,
2013-02-19 06:08:00,39.2,-99.9,29.81,SSE,154,5.0,6.0,-999,0.00,,---,0.00,VWS V14.01,2013-02-19 14:08:00,
2013-02-19 06:13:00,39.2,-99.9,29.81,East,79,6.0,7.0,-999,0.00,,---,0.00,VWS V14.01,2013-02-19 14:13:00,
2013-02-19 06:18:00,39.1,-99.9,29.81,East,92,1.0,10.0,-999,0.00,,---,0.00,VWS V14.01,2013-02-19 14:18:00,
2013-02-19 06:23:00,39.2,-99.9,29.81,East,80,4.0,10.0,-999,0.00,,---,0.00,VWS V14.01,2013-02-19 14:23:00,
2013-02-19 06:28:00,39.3,-99.9,29.81,ESE,110,1.0,10.0,-999,0.00,,---,0.00,VWS V14.01,2013-02-19 14:28:00,
2013-02-19 06:30:00,39.6,-99.9,29.79,East,86,7.0,15.0,-999,0.00,,---,0.00,VWS V14.01,2013-02-19 14:30:00,
2013-02-19 06:33:00,39.4,-99.9,29.81,ENE,78,4.0,8.0,-999,0.00,,---,0.00,VWS V14.01,2013-02-19 14:33:00,
2013-02-19 06:38:00,39.3,-99.9,29.80,SSE,150,4.0,8.0,-999,0.00,,---,0.00,VWS V14.01,2013-02-19 14:38:00,
2013-02-19 06:43:00,39.4,-99.9,29.80,ESE,111,4.0,8.0,-999,0.00,,---,0.00,VWS V14.01,2013-02-19 14:43:00,
2013-02-19 06:48:00,39.4,-99.9,29.79,ENE,75,6.0,9.0,-999,0.00,,---,0.00,VWS V14.01,2013-02-19 14:48:00,
2013-02-19 06:53:00,39.4,-99.9,29.79,ENE,74,5.0,10.0,-999,0.00,,---,0.00,VWS V14.01,2013-02-19 14:53:00,
2013-02-19 06:58:00,39.6,-99.9,29.79,NE,51,13.0,13.0,-999,0.00,,---,0.00,VWS V14.01,2013-02-19 14:58:00,
2013-02-19 07:00:00,38.8,-99.9,29.80,East,79,5.0,10.0,-999,0.01,,---,0.01,VWS V14.01,2013-02-19 15:00:00,
2013-02-19 07:03:00,39.6,-99.9,29.79,SE,128,5.0,8.0,-999,0.00,,---,0.00,VWS V14.01,2013-02-19 15:03:00,
2013-02-19 07:08:00,39.7,-99.9,29.79,ENE,71,6.0,14.0,-999,0.00,,---,0.00,VWS V14.01,2013-02-19 15:08:00,
2013-02-19 07:13:00,39.7,-99.9,29.80,ENE,73,4.0,14.0,-999,0.00,,---,0.00,VWS V14.01,2013-02-19 15:13:00,
2013-02-19 07:18:00,39.7,-99.9,29.79,NE,53,1.0,14.0,-999,0.00,,---,0.00,VWS V14.01,2013-02-19 15:18:00,
2013-02-19 07:23:00,39.8,-99.9,29.80,ESE,119,7.0,15.0,-999,0.00,,---,0.00,VWS V14.01,2013-02-19 15:23:00,
2013-02-19 07:28:00,39.8,-99.9,29.79,SE,142,6.0,15.0,-999,0.00,,---,0.00,VWS V14.01,2013-02-19 15:28:00,
2013-02-19 07:30:00,38.4,-99.9,29.78,SE,124,3.0,11.0,-999,0.03,,---,0.03,VWS V14.01,2013-02-19 15:30:00,
2013-02-19 07:33:00,39.5,-99.9,29.79,East,101,6.0,8.0,-999,0.00,,---,0.00,VWS V14.01,2013-02-19 15:33:00,
2013-02-19 07:38:00,39.2,-99.9,29.80,ESE,102,3.0,10.0,-999,0.00,,---,0.00,VWS V14.01,2013-02-19 15:38:00,
2013-02-19 07:43:00,38.9,-99.9,29.80,East,100,8.0,10.0,-999,0.00,,---,0.00,VWS V14.01,2013-02-19 15:43:00,
2013-02-19 07:48:00,39.1,-99.9,29.80,East,91,2.0,10.0,-999,0.00,,---,0.00,VWS V14.01,2013-02-19 15:48:00,
2013-02-19 07:53:00,38.9,-99.9,29.80,ESE,112,4.0,10.0,-999,0.00,,---,0.00,VWS V14.01,2013-02-19 15:53:00,
2013-02-19 07:58:00,38.8,-99.9,29.80,SSE,157,3.0,10.0,-999,0.00,,---,0.00,VWS V14.01,2013-02-19 15:58:00,
2013-02-19 08:00:00,38.3,-99.9,29.77,ENE,67,5.0,13.0,-999,0.05,,---,0.05,VWS V14.01,2013-02-19 16:00:00,
2013-02-19 08:03:00,38.7,-99.9,29.80,ENE,58,2.0,7.0,-999,0.01,,---,0.01,VWS V14.01,2013-02-19 16:03:00,
2013-02-19 08:09:00,38.6,-99.9,29.79,East,95,4.0,10.0,-999,0.01,,---,0.01,VWS V14.01,2013-02-19 16:09:00,
2013-02-19 08:14:00,38.6,-99.9,29.79,SE,129,2.0,10.0,-999,0.02,,---,0.02,VWS V14.01,2013-02-19 16:14:00,
2013-02-19 08:19:00,38.5,-99.9,29.78,ESE,116,4.0,10.0,-999,0.02,,---,0.02,VWS V14.01,2013-02-19 16:19:00,
2013-02-19 08:24:00,38.3,-99.9,29.78,NE,52,3.0,10.0,-999,0.02,,---,0.02,VWS V14.01,2013-02-19 16:24:00,
2013-02-19 08:29:00,38.4,-99.9,29.78,SSE,155,9.0,11.0,-999,0.03,,---,0.03,VWS V14.01,2013-02-19 16:29:00,
2013-02-19 08:30:00,39.0,-99.9,29.75,ESE,109,5.0,13.0,-999,0.04,,---,0.05,VWS V14.01,2013-02-19 16:30:00,
2013-02-19 08:34:00,38.4,-99.9,29.78,ESE,119,7.0,12.0,-999,0.03,,---,0.03,VWS V14.01,2013-02-19 16:34:00,
2013-02-19 08:39:00,38.3,-99.9,29.78,East,80,4.0,12.0,-999,0.03,,---,0.03,VWS V14.01,2013-02-19 16:39:00,
2013-02-19 08:44:00,38.0,-99.9,29.78,ESE,104,8.0,12.0,-999,0.04,,---,0.04,VWS V14.01,2013-02-19 16:44:00,
2013-02-19 08:49:00,38.1,-99.9,29.77,ESE,102,4.0,13.0,-999,0.04,,---,0.04,VWS V14.01,2013-02-19 16:49:00,
2013-02-19 08:54:00,38.3,-99.9,29.77,East,79,5.0,13.0,-999,0.04,,---,0.04,VWS V14.01,2013-02-19 16:54:00,
2013-02-19 08:59:00,38.4,-99.9,29.77,SE,130,6.0,13.0,-999,0.05,,---,0.05,VWS V14.01,2013-02-19 16:59:00,
2013-02-19 09:04:00,38.3,-99.9,29.77,NE,56,5.0,10.0,-999,0.04,,---,0.05,VWS V14.01,2013-02-19 17:04:00,
2013-02-19 09:09:00,38.2,-99.9,29.76,East,84,7.0,11.0,-999,0.04,,---,0.05,VWS V14.01,2013-02-19 17:09:00,
2013-02-19 09:14:00,38.3,-99.9,29.76,ESE,107,7.0,11.0,-999,0.04,,---,0.05,VWS V14.01,2013-02-19 17:14:00,
2013-02-19 09:19:00,38.4,-99.9,29.76,East,85,5.0,13.0,-999,0.04,,---,0.05,VWS V14.01,2013-02-19 17:19:00,
2013-02-19 09:24:00,38.6,-99.9,29.76,ESE,115,3.0,13.0,-999,0.04,,---,0.05,VWS V14.01,2013-02-19 17:24:00,
2013-02-19 09:29:00,38.7,-99.9,29.75,ESE,106,9.0,13.0,-999,0.04,,---,0.05,VWS V14.01,2013-02-19 17:29:00,
2013-02-19 09:30:00,39.5,-99.9,29.73,SE,138,6.0,11.0,-999,0.03,,---,0.08,VWS V14.01,2013-02-19 17:30:00,
2013-02-19 09:34:00,39.0,-99.9,29.75,East,94,7.0,10.0,-999,0.02,,---,0.05,VWS V14.01,2013-02-19 17:34:00,
2013-02-19 09:39:00,39.1,-99.9,29.75,East,92,4.0,10.0,-999,0.02,,---,0.05,VWS V14.01,2013-02-19 17:39:00,
2013-02-19 09:44:00,38.9,-99.9,29.74,ENE,75,2.0,10.0,-999,0.02,,---,0.05,VWS V14.01,2013-02-19 17:44:00,
2013-02-19 09:49:00,39.0,-99.9,29.74,ESE,121,3.0,10.0,-999,0.02,,---,0.05,VWS V14.01,2013-02-19 17:49:00,
2013-02-19 09:54:00,39.2,-99.9,29.74,East,84,4.0,12.0,-999,0.02,,---,0.05,VWS V14.01,2013-02-19 17:54:00,
2013-02-19 09:59:00,39.3,-99.9,29.74,East,83,5.0,13.0,-999,0.02,,---,0.05,VWS V14.01,2013-02-19 17:59:00,
2013-02-19 10:00:00,39.5,-99.9,29.72,ESE,104,3.0,16.0,-999,0.08,,---,0.13,VWS V14.01,2013-02-19 18:00:00,
2013-02-19 10:04:00,39.4,-99.9,29.73,East,90,2.0,9.0,-999,0.00,,---,0.05,VWS V14.01,2013-02-19 18:04:00,
2013-02-19 10:09:00,39.5,-99.9,29.73,East,81,3.0,9.0,-999,0.01,,---,0.06,VWS V14.01,2013-02-19 18:09:00,
2013-02-19 10:14:00,39.6,-99.9,29.73,SSE,164,5.0,11.0,-999,0.01,,---,0.06,VWS V14.01,2013-02-19 18:14:00,
2013-02-19 10:19:00,39.3,-99.9,29.73,ENE,74,3.0,11.0,-999,0.02,,---,0.07,VWS V14.01,2013-02-19 18:19:00,
2013-02-19 10:24:00,39.4,-99.9,29.73,SE,136,4.0,11.0,-999,0.02,,---,0.07,VWS V14.01,2013-02-19 18:24:00,
2013-02-19 10:29:00,39.3,-99.9,29.73,South,179,2.0,11.0,-999,0.03,,---,0.08,VWS V14.01,2013-02-19 18:29:00,
2013-02-19 10:30:00,39.8,-99.9,29.71,SSE,149,2.0,14.0,-999,0.13,,---,0.18,VWS V14.01,2013-02-19 18:30:00,
2013-02-19 10:34:00,39.6,-99.9,29.73,East,100,6.0,7.0,-999,0.03,,---,0.08,VWS V14.01,2013-02-19 18:34:00,
2013-02-19 10:39:00,39.5,-99.9,29.73,ESE,114,3.0,9.0,-999,0.04,,---,0.09,VWS V14.01,2013-02-19 18:39:00,
2013-02-19 10:44:00,39.3,-99.9,29.73,SSE,149,5.0,16.0,-999,0.06,,---,0.11,VWS V14.01,2013-02-19 18:44:00,
2013-02-19 10:49:00,39.2,-99.9,29.72,SE,126,4.0,16.0,-999,0.07,,---,0.12,VWS V14.01,2013-02-19 18:49:00,
2013-02-19 10:54:00,39.4,-99.9,29.72,ENE,61,7.0,16.0,-999,0.07,,---,0.12,VWS V14.01,2013-02-19 18:54:00,
2013-02-19 10:59:00,39.5,-99.9,29.71,ENE,77,4.0,16.0,-999,0.08,,---,0.13,VWS V14.01,2013-02-19 18:59:00,
2013-02-19 11:00:00,38.3,-99.9,29.71,South,172,6.0,19.0,-999,0.25,,---,0.33,VWS V14.01,2013-02-19 19:00:00,
2013-02-19 11:04:00,39.5,-99.9,29.71,East,86,3.0,7.0,-999,0.08,,---,0.13,VWS V14.01,2013-02-19 19:04:00,
2013-02-19 11:09:00,39.8,-99.9,29.71,ESE,117,10.0,11.0,-999,0.08,,---,0.13,VWS V14.01,2013-02-19 19:09:00,
2013-02-19 11:14:00,39.8,-99.9,29.71,SE,130,2.0,14.0,-999,0.08,,---,0.13,VWS V14.01,2013-02-19 19:14:00,
2013-02-19 11:19:00,39.7,-99.9,29.72,East,98,5.0,14.0,-999,0.09,,---,0.14,VWS V14.01,2013-02-19 19:19:00,
2013-02-19 11:24:00,39.7,-99.9,29.71,SE,132,4.0,14.0,-999,0.11,,---,0.16,VWS V14.01,2013-02-19 19:24:00,
2013-02-19 11:29:00,39.7,-99.9,29.71,SSE,151,5.0,14.0,-999,0.12,,---,0.17,VWS V14.01,2013-02-19 19:29:00,
2013-02-19 11:30:00,36.9,-99.9,29.70,SSE,158,3.0,17.0,-999,0.29,,---,0.42,VWS V14.01,2013-02-19 19:30:00,
2013-02-19 11:34:00,39.8,-99.9,29.71,ESE,107,3.0,3.0,-999,0.10,,---,0.00,VWS V14.01,2013-02-19 19:34:00,
2013-02-19 11:39:00,39.7,-99.9,29.71,SSE,166,5.0,19.0,-999,0.12,,---,0.20,VWS V14.01,2013-02-19 19:39:00,
2013-02-19 11:44:00,39.4,-99.9,29.71,SSE,151,3.0,19.0,-999,0.15,,---,0.23,VWS V14.01,2013-02-19 19:44:00,
2013-02-19 11:49:00,39.3,-99.9,29.72,SSE,165,6.0,19.0,-999,0.18,,---,0.26,VWS V14.01,2013-02-19 19:49:00,
2013-02-19 11:54:00,38.5,-99.9,29.71,SE,133,7.0,19.0,-999,0.21,,---,0.29,VWS V14.01,2013-02-19 19:54:00,
2013-02-19 11:59:00,38.2,-99.9,29.71,ESE,108,4.0,19.0,-999,0.24,,---,0.32,VWS V14.01,2013-02-19 19:59:00,
2013-02-19 12:00:00,38.0,-99.9,29.70,SSE,155,2.0,10.0,-999,0.32,,---,0.50,VWS V14.01,2013-02-19 20:00:00,
2013-02-19 12:04:00,37.9,-99.9,29.71,ESE,116,10.0,17.0,-999,0.21,,---,0.34,VWS V14.01,2013-02-19 20:04:00,
2013-02-19 12:09:00,37.8,-99.9,29.70,ESE,104,4.0,17.0,-999,0.22,,---,0.35,VWS V14.01,2013-02-19 20:09:00,
2013-02-19 12:14:00,37.4,-99.9,29.70,East,92,6.0,17.0,-999,0.24,,---,0.37,VWS V14.01,2013-02-19 20:14:00,
2013-02-19 12:19:00,37.4,-99.9,29.70,East,86,4.0,17.0,-999,0.25,,---,0.38,VWS V14.01,2013-02-19 20:19:00,
2013-02-19 12:24:00,37.1,-99.9,29.70,SE,146,8.0,17.0,-999,0.27,,---,0.40,VWS V14.01,2013-02-19 20:24:00,
2013-02-19 12:29:00,37.1,-99.9,29.70,East,81,7.0,17.0,-999,0.28,,---,0.41,VWS V14.01,2013-02-19 20:29:00,
2013-02-19 12:30:00,38.8,-99.9,29.69,WSW,255,0.0,13.0,-999,0.22,,---,0.55,VWS V14.01,2013-02-19 20:30:00,
2013-02-19 12:34:00,36.9,-99.9,29.70,SSE,151,7.0,7.0,-999,0.25,,---,0.43,VWS V14.01,2013-02-19 20:34:00,
2013-02-19 12:39:00,36.9,-99.9,29.70,South,183,0.0,10.0,-999,0.26,,---,0.44,VWS V14.01,2013-02-19 20:39:00,
2013-02-19 12:44:00,37.1,-99.9,29.70,ESE,122,1.0,10.0,-999,0.27,,---,0.45,VWS V14.01,2013-02-19 20:44:00,
2013-02-19 12:49:00,37.6,-99.9,29.70,SSE,158,1.0,10.0,-999,0.29,,---,0.47,VWS V14.01,2013-02-19 20:49:00,
2013-02-19 12:54:00,37.8,-99.9,29.70,SE,139,1.0,10.0,-999,0.30,,---,0.48,VWS V14.01,2013-02-19 20:54:00,
2013-02-19 12:59:00,37.9,-99.9,29.70,SSE,155,0.0,10.0,-999,0.32,,---,0.50,VWS V14.01,2013-02-19 20:59:00,
2013-02-19 13:00:00,39.6,-99.9,29.68,ESE,116,3.0,5.0,-999,0.14,,---,0.56,VWS V14.01,2013-02-19 21:00:00,
2013-02-19 13:04:00,37.8,-99.9,29.70,ESE,111,3.0,13.0,-999,0.18,,---,0.51,VWS V14.01,2013-02-19 21:04:00,
2013-02-19 13:09:00,37.7,-99.9,29.70,SSE,165,11.0,13.0,-999,0.19,,---,0.52,VWS V14.01,2013-02-19 21:09:00,
2013-02-19 13:14:00,37.9,-99.9,29.69,ESE,117,0.0,13.0,-999,0.20,,---,0.53,VWS V14.01,2013-02-19 21:14:00,
2013-02-19 13:19:00,38.3,-99.9,29.69,SSW,194,1.0,13.0,-999,0.21,,---,0.54,VWS V14.01,2013-02-19 21:19:00,
2013-02-19 13:24:00,38.6,-99.9,29.69,SSW,200,0.0,13.0,-999,0.22,,---,0.55,VWS V14.01,2013-02-19 21:24:00,
2013-02-19 13:29:00,38.7,-99.9,29.69,WSW,255,0.0,13.0,-999,0.22,,---,0.55,VWS V14.01,2013-02-19 21:29:00,
2013-02-19 13:30:00,39.6,-99.9,29.68,East,85,3.0,7.0,-999,0.06,,---,0.56,VWS V14.01,2013-02-19 21:30:00,
2013-02-19 13:35:00,38.4,-99.9,29.69,WSW,255,0.0,0.0,-999,0.13,,---,0.55,VWS V14.01,2013-02-19 21:35:00,
2013-02-19 13:40:00,38.9,-99.9,29.69,WSW,255,2.0,2.0,-999,0.13,,---,0.55,VWS V14.01,2013-02-19 21:40:00,
2013-02-19 13:45:00,39.0,-99.9,29.68,SE,126,2.0,5.0,-999,0.13,,---,0.55,VWS V14.01,2013-02-19 21:45:00,
2013-02-19 13:50:00,39.4,-99.9,29.68,ESE,112,2.0,5.0,-999,0.14,,---,0.56,VWS V14.01,2013-02-19 21:50:00,
2013-02-19 13:55:00,39.4,-99.9,29.68,East,84,3.0,5.0,-999,0.14,,---,0.56,VWS V14.01,2013-02-19 21:55:00,
2013-02-19 14:00:00,39.5,-99.9,29.68,SE,146,4.0,5.0,-999,0.14,,---,0.56,VWS V14.01,2013-02-19 22:00:00,
2013-02-19 14:05:00,39.5,-99.9,29.67,ESE,109,0.0,4.0,-999,0.06,,---,0.56,VWS V14.01,2013-02-19 22:05:00,
2013-02-19 14:10:00,39.8,-99.9,29.68,ENE,70,4.0,6.0,-999,0.06,,---,0.56,VWS V14.01,2013-02-19 22:10:00,
2013-02-19 14:15:00,40.1,-99.9,29.68,SE,144,4.0,7.0,-999,0.06,,---,0.56,VWS V14.01,2013-02-19 22:15:00,
2013-02-19 14:20:00,39.5,-99.9,29.68,ENE,78,1.0,7.0,-999,0.06,,---,0.56,VWS V14.01,2013-02-19 22:20:00,
2013-02-19 14:25:00,39.7,-99.9,29.68,SE,131,1.0,7.0,-999,0.06,,---,0.56,VWS V14.01,2013-02-19 22:25:00,
2013-02-19 14:30:00,39.6,-99.9,29.68,ESE,116,5.0,7.0,-999,0.06,,---,0.56,VWS V14.01,2013-02-19 22:30:00,
2013-02-19 14:35:00,39.6,-99.9,29.68,SE,124,2.0,5.0,-999,0.01,,---,0.56,VWS V14.01,2013-02-19 22:35:00,
2013-02-19 14:40:00,39.6,-99.9,29.68,ESE,116,1.0,5.0,-999,0.01,,---,0.56,VWS V14.01,2013-02-19 22:40:00,
2013-02-19 14:45:00,39.7,-99.9,29.68,ESE,102,0.0,7.0,-999,0.01,,---,0.56,VWS V14.01,2013-02-19 22:45:00,
2013-02-19 14:50:00,39.6,-99.9,29.67,NNE,29,4.0,7.0,-999,0.01,,---,0.56,VWS V14.01,2013-02-19 22:50:00,
2013-02-19 14:55:00,39.1,-99.9,29.68,NNE,18,3.0,7.0,-999,0.01,,---,0.56,VWS V14.01,2013-02-19 22:55:00,
2013-02-19 15:00:00,39.1,-99.9,29.68,North,356,1.0,7.0,-999,0.01,,---,0.56,VWS V14.01,2013-02-19 23:00:00,
2013-02-19 15:05:00,40.1,-99.9,29.68,NNW,346,2.0,5.0,-999,0.00,,---,0.56,VWS V14.01,2013-02-19 23:05:00,
2013-02-19 15:10:00,40.9,-99.9,29.69,NNW,346,2.0,5.0,-999,0.00,,---,0.56,VWS V14.01,2013-02-19 23:10:00,
2013-02-19 15:15:00,40.4,-99.9,29.68,NNW,346,0.0,5.0,-999,0.00,,---,0.56,VWS V14.01,2013-02-19 23:15:00,
2013-02-19 15:20:00,40.7,-99.9,29.68,North,4,2.0,5.0,-999,0.00,,---,0.56,VWS V14.01,2013-02-19 23:20:00,
2013-02-19 15:25:00,40.1,-99.9,29.68,North,354,2.0,5.0,-999,0.00,,---,0.56,VWS V14.01,2013-02-19 23:25:00,
2013-02-19 15:30:00,39.5,-99.9,29.68,ENE,68,4.0,7.0,-999,0.00,,---,0.56,VWS V14.01,2013-02-19 23:30:00,
2013-02-19 15:35:00,39.8,-99.9,29.68,ESE,104,2.0,4.0,-999,0.00,,---,0.56,VWS V14.01,2013-02-19 23:35:00,
2013-02-19 15:40:00,39.5,-99.9,29.68,ESE,112,0.0,4.0,-999,0.00,,---,0.56,VWS V14.01,2013-02-19 23:40:00,
2013-02-19 15:45:00,39.7,-99.9,29.68,ESE,111,2.0,6.0,-999,0.00,,---,0.56,VWS V14.01,2013-02-19 23:45:00,
2013-02-19 15:50:00,39.1,-99.9,29.68,ESE,115,3.0,9.0,-999,0.00,,---,0.56,VWS V14.01,2013-02-19 23:50:00,
2013-02-19 15:55:00,39.3,-99.9,29.68,East,100,0.0,9.0,-999,0.00,,---,0.56,VWS V14.01,2013-02-19 23:55:00,
2013-02-19 16:00:00,39.4,-99.9,29.68,ENE,61,0.0,9.0,-999,0.00,,---,0.56,VWS V14.01,2013-02-20 00:00:00,
2013-02-19 16:05:00,39.6,-99.9,29.68,NNW,346,2.0,5.0,-999,0.00,,---,0.56,VWS V14.01,2013-02-20 00:05:00,
2013-02-19 16:10:00,39.5,-99.9,29.69,SSE,164,4.0,8.0,-999,0.00,,---,0.56,VWS V14.01,2013-02-20 00:10:00,
2013-02-19 16:15:00,39.4,-99.9,29.69,ESE,114,2.0,8.0,-999,0.00,,---,0.56,VWS V14.01,2013-02-20 00:15:00,
2013-02-19 16:20:00,39.3,-99.9,29.68,SE,146,2.0,8.0,-999,0.00,,---,0.56,VWS V14.01,2013-02-20 00:20:00,
2013-02-19 16:25:00,38.9,-99.9,29.68,NE,43,2.0,8.0,-999,0.00,,---,0.56,VWS V14.01,2013-02-20 00:25:00,
2013-02-19 16:30:00,39.0,-99.9,29.68,SSE,154,0.0,8.0,-999,0.00,,---,0.56,VWS V14.01,2013-02-20 00:30:00,
2013-02-19 16:35:00,39.1,-99.9,29.68,East,83,1.0,8.0,-999,0.00,,---,0.56,VWS V14.01,2013-02-20 00:35:00,
2013-02-19 16:40:00,39.2,-99.9,29.68,SSE,164,2.0,8.0,-999,0.00,,---,0.56,VWS V14.01,2013-02-20 00:40:00,
2013-02-19 16:45:00,39.1,-99.9,29.68,North,11,0.0,8.0,-999,0.00,,---,0.56,VWS V14.01,2013-02-20 00:45:00,
2013-02-19 16:50:00,38.9,-99.9,29.68,North,355,3.0,8.0,-999,0.00,,---,0.56,VWS V14.01,2013-02-20 00:50:00,
2013-02-19 16:55:00,39.0,-99.9,29.67,NW,318,2.0,8.0,-999,0.00,,---,0.56,VWS V14.01,2013-02-20 00:55:00,
2013-02-19 17:00:00,38.9,-99.9,29.68,NNW,331,2.0,8.0,-999,0.00,,---,0.56,VWS V14.01,2013-02-20 01:00:00,
2013-02-19 17:05:00,38.9,-99.9,29.68,NNW,331,0.0,0.0,-999,0.00,,---,0.56,VWS V14.01,2013-02-20 01:05:00,
2013-02-19 17:10:00,39.1,-99.9,29.68,NNW,331,0.0,0.0,-999,0.00,,---,0.56,VWS V14.01,2013-02-20 01:10:00,
2013-02-19 17:15:00,39.1,-99.9,29.67,NNW,331,1.0,3.0,-999,0.00,,---,0.56,VWS V14.01,2013-02-20 01:15:00,
2013-02-19 17:20:00,38.4,-99.9,29.68,NNW,331,2.0,3.0,-999,0.00,,---,0.56,VWS V14.01,2013-02-20 01:20:00,
2013-02-19 17:25:00,38.5,-99.9,29.68,NNW,331,0.0,3.0,-999,0.00,,---,0.56,VWS V14.01,2013-02-20 01:25:00,
2013-02-19 17:30:00,38.7,-99.9,29.68,NNW,331,0.0,3.0,-999,0.00,,---,0.56,VWS V14.01,2013-02-20 01:30:00,
2013-02-19 17:35:00,38.3,-99.9,29.69,NNW,331,0.0,0.0,-999,0.00,,---,0.56,VWS V14.01,2013-02-20 01:35:00,
2013-02-19 17:40:00,38.1,-99.9,29.69,NNW,331,0.0,0.0,-999,0.00,,---,0.56,VWS V14.01,2013-02-20 01:40:00,
2013-02-19 17:46:00,38.1,-99.9,29.69,NNW,331,2.0,3.0,-999,0.00,,---,0.56,VWS V14.01,2013-02-20 01:46:00,
2013-02-19 17:51:00,38.3,-99.9,29.69,NNW,331,0.0,3.0,-999,0.00,,---,0.56,VWS V14.01,2013-02-20 01:51:00,
2013-02-19 17:56:00,38.2,-99.9,29.69,NNW,331,0.0,3.0,-999,0.00,,---,0.56,VWS V14.01,2013-02-20 01:56:00,
2013-02-19 18:00:00,36.1,-99.9,29.70,North,5,0.0,4.0,-999,0.00,,---,0.56,VWS V14.01,2013-02-20 02:00:00,
2013-02-19 18:01:00,38.0,-99.9,29.69,NNW,331,0.0,3.0,-999,0.00,,---,0.56,VWS V14.01,2013-02-20 02:01:00,
2013-02-19 18:06:00,37.6,-99.9,29.69,NNW,331,0.0,0.0,-999,0.00,,---,0.56,VWS V14.01,2013-02-20 02:06:00,
2013-02-19 18:11:00,37.3,-99.9,29.69,NNW,331,0.0,0.0,-999,0.00,,---,0.56,VWS V14.01,2013-02-20 02:11:00,
2013-02-19 18:16:00,37.1,-99.9,29.69,NE,43,2.0,5.0,-999,0.00,,---,0.56,VWS V14.01,2013-02-20 02:16:00,
2013-02-19 18:21:00,37.2,-99.9,29.69,NE,46,1.0,5.0,-999,0.00,,---,0.56,VWS V14.01,2013-02-20 02:21:00,
2013-02-19 18:26:00,37.3,-99.9,29.70,North,355,0.0,5.0,-999,0.00,,---,0.56,VWS V14.01,2013-02-20 02:26:00,
2013-02-19 18:30:00,36.3,-99.9,29.70,SSE,153,0.0,4.0,-999,0.00,,---,0.56,VWS V14.01,2013-02-20 02:30:00,
2013-02-19 18:31:00,37.2,-99.9,29.70,North,355,1.0,5.0,-999,0.00,,---,0.56,VWS V14.01,2013-02-20 02:31:00,
2013-02-19 18:36:00,37.0,-99.9,29.70,North,355,0.0,3.0,-999,0.00,,---,0.56,VWS V14.01,2013-02-20 02:36:00,
2013-02-19 18:41:00,36.8,-99.9,29.69,North,0,3.0,4.0,-999,0.00,,---,0.56,VWS V14.01,2013-02-20 02:41:00,
2013-02-19 18:46:00,36.6,-99.9,29.69,North,0,4.0,4.0,-999,0.00,,---,0.56,VWS V14.01,2013-02-20 02:46:00,
2013-02-19 18:51:00,36.5,-99.9,29.69,North,5,2.0,4.0,-999,0.00,,---,0.56,VWS V14.01,2013-02-20 02:51:00,
2013-02-19 18:56:00,36.3,-99.9,29.69,North,5,2.0,4.0,-999,0.00,,---,0.56,VWS V14.01,2013-02-20 02:56:00,
2013-02-19 19:00:00,36.4,-99.9,29.70,North,0,0.0,3.0,-999,0.00,,---,0.56,VWS V14.01,2013-02-20 03:00:00,
2013-02-19 19:01:00,36.1,-99.9,29.70,North,5,0.0,4.0,-999,0.00,,---,0.56,VWS V14.01,2013-02-20 03:01:00,
2013-02-19 19:06:00,36.1,-99.9,29.70,North,5,0.0,0.0,-999,0.00,,---,0.56,VWS V14.01,2013-02-20 03:06:00,
2013-02-19 19:11:00,36.0,-99.9,29.70,North,5,0.0,0.0,-999,0.00,,---,0.56,VWS V14.01,2013-02-20 03:11:00,
2013-02-19 19:16:00,36.0,-99.9,29.70,West,268,2.0,4.0,-999,0.00,,---,0.56,VWS V14.01,2013-02-20 03:16:00,
2013-02-19 19:21:00,36.0,-99.9,29.70,SSE,153,0.0,4.0,-999,0.00,,---,0.56,VWS V14.01,2013-02-20 03:21:00,
2013-02-19 19:26:00,36.0,-99.9,29.70,SSE,153,0.0,4.0,-999,0.00,,---,0.56,VWS V14.01,2013-02-20 03:26:00,
2013-02-19 19:30:00,35.2,-99.9,29.70,NNW,341,2.0,4.0,-999,0.00,,---,0.56,VWS V14.01,2013-02-20 03:30:00,
2013-02-19 19:31:00,36.2,-99.9,29.70,SSE,153,0.0,4.0,-999,0.00,,---,0.56,VWS V14.01,2013-02-20 03:31:00,
2013-02-19 19:36:00,36.3,-99.9,29.70,SSE,152,0.0,0.0,-999,0.00,,---,0.56,VWS V14.01,2013-02-20 03:36:00,
2013-02-19 19:41:00,36.3,-99.9,29.70,SSE,153,0.0,1.0,-999,0.00,,---,0.56,VWS V14.01,2013-02-20 03:41:00,
2013-02-19 19:46:00,36.5,-99.9,29.70,SSE,153,0.0,1.0,-999,0.00,,---,0.56,VWS V14.01,2013-02-20 03:46:00,
2013-02-19 19:51:00,36.4,-99.9,29.70,North,0,1.0,2.0,-999,0.00,,---,0.56,VWS V14.01,2013-02-20 03:51:00,
2013-02-19 19:56:00,36.5,-99.9,29.70,North,0,1.0,2.0,-999,0.00,,---,0.56,VWS V14.01,2013-02-20 03:56:00,
2013-02-19 20:00:00,34.6,-99.9,29.71,NNW,345,0.0,4.0,-999,0.00,,---,0.56,VWS V14.01,2013-02-20 04:00:00,
2013-02-19 20:01:00,36.5,-99.9,29.70,North,0,0.0,3.0,-999,0.00,,---,0.56,VWS V14.01,2013-02-20 04:01:00,
2013-02-19 20:06:00,36.3,-99.9,29.70,North,0,0.0,0.0,-999,0.00,,---,0.56,VWS V14.01,2013-02-20 04:06:00,
2013-02-19 20:11:00,36.1,-99.9,29.70,North,0,0.0,0.0,-999,0.00,,---,0.56,VWS V14.01,2013-02-20 04:11:00,
2013-02-19 20:16:00,35.8,-99.9,29.69,North,0,0.0,0.0,-999,0.00,,---,0.56,VWS V14.01,2013-02-20 04:16:00,
2013-02-19 20:21:00,35.7,-99.9,29.70,North,0,0.0,0.0,-999,0.00,,---,0.56,VWS V14.01,2013-02-20 04:21:00,
2013-02-19 20:26:00,35.1,-99.9,29.70,North,0,0.0,2.0,-999,0.00,,---,0.56,VWS V14.01,2013-02-20 04:26:00,
2013-02-19 20:30:00,33.0,-99.9,29.71,WSW,245,0.0,8.0,-999,0.00,,---,0.56,VWS V14.01,2013-02-20 04:30:00,
2013-02-19 20:31:00,35.1,-99.9,29.70,North,358,4.0,4.0,-999,0.00,,---,0.56,VWS V14.01,2013-02-20 04:31:00,
2013-02-19 20:36:00,35.4,-99.9,29.70,NNW,341,1.0,3.0,-999,0.00,,---,0.56,VWS V14.01,2013-02-20 04:36:00,
2013-02-19 20:41:00,35.4,-99.9,29.71,NNW,341,2.0,3.0,-999,0.00,,---,0.56,VWS V14.01,2013-02-20 04:41:00,
2013-02-19 20:46:00,35.1,-99.9,29.71,NNW,341,3.0,4.0,-999,0.00,,---,0.56,VWS V14.01,2013-02-20 04:46:00,
2013-02-19 20:51:00,34.7,-99.9,29.71,NNW,341,0.0,4.0,-999,0.00,,---,0.56,VWS V14.01,2013-02-20 04:51:00,
2013-02-19 20:56:00,34.6,-99.9,29.71,NNW,341,0.0,4.0,-999,0.00,,---,0.56,VWS V14.01,2013-02-20 04:56:00,
2013-02-19 21:00:00,34.5,-99.9,29.71,NNW,345,0.0,4.0,-999,0.00,,---,0.56,VWS V14.01,2013-02-20 05:00:00,
2013-02-19 21:05:00,34.7,-99.9,29.71,NW,306,1.0,4.0,-999,0.00,,---,0.56,VWS V14.01,2013-02-20 05:05:00,
2013-02-19 21:10:00,33.8,-99.9,29.71,WSW,245,3.0,8.0,-999,0.00,,---,0.56,VWS V14.01,2013-02-20 05:10:00,
2013-02-19 21:15:00,33.6,-99.9,29.71,WSW,245,0.0,8.0,-999,0.00,,---,0.56,VWS V14.01,2013-02-20 05:15:00,
2013-02-19 21:20:00,33.4,-99.9,29.71,WSW,245,2.0,8.0,-999,0.00,,---,0.56,VWS V14.01,2013-02-20 05:20:00,
2013-02-19 21:25:00,33.3,-99.9,29.71,WSW,245,0.0,8.0,-999,0.00,,---,0.56,VWS V14.01,2013-02-20 05:25:00,
2013-02-19 21:30:00,32.7,-99.9,29.71,WSW,245,0.0,8.0,-999,0.00,,---,0.56,VWS V14.01,2013-02-20 05:30:00,
2013-02-19 21:35:00,32.7,-99.9,29.71,WSW,245,0.0,0.0,-999,0.00,,---,0.56,VWS V14.01,2013-02-20 05:35:00,
2013-02-19 21:40:00,32.3,-99.9,29.71,WSW,245,0.0,0.0,-999,0.00,,---,0.56,VWS V14.01,2013-02-20 05:40:00,
2013-02-19 21:45:00,32.1,-99.9,29.71,WSW,245,0.0,0.0,-999,0.00,,---,0.56,VWS V14.01,2013-02-20 05:45:00,
2013-02-19 21:50:00,31.7,-99.9,29.71,WSW,245,0.0,0.0,-999,0.00,,---,0.56,VWS V14.01,2013-02-20 05:50:00,
2013-02-19 21:55:00,31.5,-99.9,29.71,WSW,245,0.0,3.0,-999,0.00,,---,0.56,VWS V14.01,2013-02-20 05:55:00,
2013-02-19 22:00:00,31.3,-99.9,29.71,WSW,245,3.0,3.0,-999,0.00,,---,0.56,VWS V14.01,2013-02-20 06:00:00,
2013-02-19 22:05:00,31.5,-99.9,29.71,WNW,296,1.0,4.0,-999,0.00,,---,0.56,VWS V14.01,2013-02-20 06:05:00,
2013-02-19 22:10:00,31.3,-99.9,29.72,WNW,296,0.0,4.0,-999,0.00,,---,0.56,VWS V14.01,2013-02-20 06:10:00,
2013-02-19 22:15:00,31.1,-99.9,29.72,WNW,296,0.0,4.0,-999,0.00,,---,0.56,VWS V14.01,2013-02-20 06:15:00,
2013-02-19 22:20:00,31.1,-99.9,29.72,WNW,296,0.0,4.0,-999,0.00,,---,0.56,VWS V14.01,2013-02-20 06:20:00,
2013-02-19 22:25:00,31.5,-99.9,29.72,WNW,296,0.0,4.0,-999,0.00,,---,0.56,VWS V14.01,2013-02-20 06:25:00,
2013-02-19 22:30:00,30.6,-99.9,29.73,WNW,296,0.0,4.0,-999,0.00,,---,0.56,VWS V14.01,2013-02-20 06:30:00,
2013-02-19 22:35:00,30.3,-99.9,29.73,WNW,296,0.0,0.0,-999,0.00,,---,0.56,VWS V14.01,2013-02-20 06:35:00,
2013-02-19 22:40:00,30.4,-99.9,29.73,WNW,296,0.0,0.0,-999,0.00,,---,0.56,VWS V14.01,2013-02-20 06:40:00,
2013-02-19 22:45:00,30.7,-99.9,29.72,WNW,296,0.0,0.0,-999,0.00,,---,0.56,VWS V14.01,2013-02-20 06:45:00,
2013-02-19 22:50:00,30.6,-99.9,29.72,WNW,296,3.0,3.0,-999,0.00,,---,0.56,VWS V14.01,2013-02-20 06:50:00,
2013-02-19 22:55:00,30.9,-99.9,29.73,NW,316,4.0,5.0,-999,0.00,,---,0.56,VWS V14.01,2013-02-20 06:55:00,
2013-02-19 23:00:00,30.8,-99.9,29.73,NNW,329,3.0,5.0,-999,0.00,,---,0.56,VWS V14.01,2013-02-20 07:00:00,
2013-02-19 23:05:00,30.8,-99.9,29.73,NNW,329,0.0,3.0,-999,0.00,,---,0.56,VWS V14.01,2013-02-20 07:05:00,
2013-02-19 23:10:00,30.4,-99.9,29.73,NNW,329,2.0,3.0,-999,0.00,,---,0.56,VWS V14.01,2013-02-20 07:10:00,
2013-02-19 23:15:00,30.6,-99.9,29.73,NNW,329,2.0,4.0,-999,0.00,,---,0.56,VWS V14.01,2013-02-20 07:15:00,
2013-02-19 23:20:00,30.6,-99.9,29.73,NNW,329,3.0,4.0,-999,0.00,,---,0.56,VWS V14.01,2013-02-20 07:20:00,
2013-02-19 23:25:00,29.8,-99.9,29.73,NNW,329,0.0,4.0,-999,0.00,,---,0.56,VWS V14.01,2013-02-20 07:25:00,
2013-02-19 23:30:00,30.2,-99.9,29.73,NNW,329,0.0,4.0,-999,0.00,,---,0.56,VWS V14.01,2013-02-20 07:30:00,
2013-02-19 23:35:00,29.9,-99.9,29.74,NNW,329,0.0,0.0,-999,0.00,,---,0.56,VWS V14.01,2013-02-20 07:35:00,
2013-02-19 23:40:00,29.9,-99.9,29.73,NNW,329,0.0,0.0,-999,0.00,,---,0.56,VWS V14.01,2013-02-20 07:40:00,
2013-02-19 23:45:00,29.8,-99.9,29.73,NNW,329,0.0,0.0,-999,0.00,,---,0.56,VWS V14.01,2013-02-20 07:45:00,
2013-02-19 23:50:00,29.6,-99.9,29.74,NNW,329,0.0,0.0,-999,0.00,,---,0.56,VWS V14.01,2013-02-20 07:50:00,
2013-02-19 23:55:00,29.5,-99.9,29.74,NNW,329,0.0,0.0,-999,0.00,,---,0.56,VWS V14.01,2013-02-20 07:55:00,